Time,TemperatureF,DewpointF,PressureIn,WindDirection,WindDirectionDegrees,WindSpeedMPH,WindSpeedGustMPH,Humidity,HourlyPrecipIn,Conditions,Clouds,dailyrainin,SoftwareType,DateUTC
2013-01-20 00:04:00,31.1,15.5,30.30,WSW,248,0.2,1.3,52,0.00,,,0.00,WUHU216HW,2013-01-20 08:04:00,
2013-01-20 00:09:00,31.1,15.5,30.30,NW,315,0.4,1.8,52,0.00,,,0.00,WUHU216HW,2013-01-20 08:09:00,
2013-01-20 00:14:00,31.1,15.1,30.31,ENE,68,0.0,1.8,51,0.00,,,0.00,WUHU216HW,2013-01-20 08:14:00,
2013-01-20 00:19:00,31.0,15.4,30.31,East,90,0.7,0.7,52,0.00,,,0.00,WUHU216HW,2013-01-20 08:19:00,
2013-01-20 00:25:00,30.6,15.0,30.31,North,0,0.0,0.7,52,0.00,,,0.00,WUHU216HW,2013-01-20 08:25:00,
2013-01-20 00:30:00,30.6,15.0,30.31,NNW,338,0.0,2.5,52,0.00,,,0.00,WUHU216HW,2013-01-20 08:30:00,
2013-01-20 00:35:00,30.6,15.0,30.31,SW,225,0.4,2.5,52,0.00,,,0.00,WUHU216HW,2013-01-20 08:35:00,
2013-01-20 00:40:00,30.4,14.9,30.31,SSW,203,0.4,0.7,52,0.00,,,0.00,WUHU216HW,2013-01-20 08:40:00,
2013-01-20 00:45:00,30.1,14.5,30.31,East,90,1.1,1.1,52,0.00,,,0.00,WUHU216HW,2013-01-20 08:45:00,
2013-01-20 00:50:00,29.9,14.4,30.31,ENE,68,0.9,1.1,52,0.00,,,0.00,WUHU216HW,2013-01-20 08:50:00,
2013-01-20 00:55:00,29.9,14.4,30.31,North,0,0.4,1.8,52,0.00,,,0.00,WUHU216HW,2013-01-20 08:55:00,
2013-01-20 01:00:00,29.7,14.2,30.31,NNW,338,0.9,1.8,52,0.00,,,0.00,WUHU216HW,2013-01-20 09:00:00,
2013-01-20 01:05:00,29.5,14.5,30.30,WSW,248,2.0,2.0,53,0.00,,,0.00,WUHU216HW,2013-01-20 09:05:00,
2013-01-20 01:10:00,29.3,14.3,30.31,WNW,293,0.4,3.1,53,0.00,,,0.00,WUHU216HW,2013-01-20 09:10:00,
2013-01-20 01:15:00,29.3,14.3,30.31,NNE,23,0.4,3.1,53,0.00,,,0.00,WUHU216HW,2013-01-20 09:15:00,
2013-01-20 01:20:00,29.5,14.9,30.31,North,0,0.7,4.0,54,0.00,,,0.00,WUHU216HW,2013-01-20 09:20:00,
2013-01-20 01:26:00,29.3,14.7,30.31,SW,225,1.1,4.0,54,0.00,,,0.00,WUHU216HW,2013-01-20 09:26:00,
2013-01-20 01:31:00,29.3,14.7,30.31,WSW,248,0.9,2.5,54,0.00,,,0.00,WUHU216HW,2013-01-20 09:31:00,
2013-01-20 01:36:00,29.2,14.9,30.30,NW,315,0.7,1.1,55,0.00,,,0.00,WUHU216HW,2013-01-20 09:36:00,
2013-01-20 01:41:00,29.2,14.9,30.31,NNW,338,0.4,1.6,55,0.00,,,0.00,WUHU216HW,2013-01-20 09:41:00,
2013-01-20 01:46:00,29.0,14.8,30.30,North,0,0.4,1.6,55,0.00,,,0.00,WUHU216HW,2013-01-20 09:46:00,
2013-01-20 01:51:00,29.0,14.8,30.30,NNE,23,0.4,0.4,55,0.00,,,0.00,WUHU216HW,2013-01-20 09:51:00,
2013-01-20 01:56:00,28.8,14.7,30.30,WSW,248,1.3,3.6,55,0.00,,,0.00,WUHU216HW,2013-01-20 09:56:00,
2013-01-20 02:01:00,28.6,14.5,30.31,SW,225,0.0,3.6,55,0.00,,,0.00,WUHU216HW,2013-01-20 10:01:00,
2013-01-20 02:06:00,28.6,14.9,30.31,SSE,158,0.9,1.6,56,0.00,,,0.00,WUHU216HW,2013-01-20 10:06:00,
2013-01-20 02:11:00,28.4,14.8,30.31,West,270,0.4,1.6,56,0.00,,,0.00,WUHU216HW,2013-01-20 10:11:00,
2013-01-20 02:16:00,28.4,14.8,30.31,North,0,0.4,1.3,56,0.00,,,0.00,WUHU216HW,2013-01-20 10:16:00,
2013-01-20 02:21:00,28.4,14.8,30.31,WSW,248,0.0,2.5,56,0.00,,,0.00,WUHU216HW,2013-01-20 10:21:00,
2013-01-20 02:26:00,28.3,14.6,30.31,NNE,23,0.4,2.7,56,0.00,,,0.00,WUHU216HW,2013-01-20 10:26:00,
2013-01-20 02:31:00,28.1,14.4,30.31,NNW,338,0.4,2.7,56,0.00,,,0.00,WUHU216HW,2013-01-20 10:31:00,
2013-01-20 02:36:00,28.1,14.8,30.31,ESE,113,0.2,0.9,57,0.00,,,0.00,WUHU216HW,2013-01-20 10:36:00,
2013-01-20 02:41:00,28.1,14.4,30.31,ENE,68,0.4,0.9,56,0.00,,,0.00,WUHU216HW,2013-01-20 10:41:00,
2013-01-20 02:46:00,27.9,14.6,30.31,SW,225,1.6,1.6,57,0.00,,,0.00,WUHU216HW,2013-01-20 10:46:00,
2013-01-20 02:52:00,27.9,14.6,30.31,SSE,158,0.0,1.8,57,0.00,,,0.00,WUHU216HW,2013-01-20 10:52:00,
2013-01-20 02:56:00,27.7,14.4,30.30,NNW,338,0.2,1.8,57,0.00,,,0.00,WUHU216HW,2013-01-20 10:56:00,
2013-01-20 03:02:00,27.7,14.4,30.31,WNW,293,0.4,0.7,57,0.00,,,0.00,WUHU216HW,2013-01-20 11:02:00,
2013-01-20 03:07:00,27.5,14.2,30.30,South,180,0.4,1.6,57,0.00,,,0.00,WUHU216HW,2013-01-20 11:07:00,
2013-01-20 03:12:00,27.5,14.2,30.30,ENE,68,0.7,1.6,57,0.00,,,0.00,WUHU216HW,2013-01-20 11:12:00,
2013-01-20 03:17:00,27.4,14.5,30.30,SW,225,1.1,1.6,58,0.00,,,0.00,WUHU216HW,2013-01-20 11:17:00,
2013-01-20 03:22:00,27.4,14.5,30.30,South,180,1.3,1.6,58,0.00,,,0.00,WUHU216HW,2013-01-20 11:22:00,
2013-01-20 03:27:00,27.4,14.5,30.30,WSW,248,0.2,2.2,58,0.00,,,0.00,WUHU216HW,2013-01-20 11:27:00,
2013-01-20 03:32:00,27.2,14.3,30.30,NW,315,0.9,2.2,58,0.00,,,0.00,WUHU216HW,2013-01-20 11:32:00,
2013-01-20 03:37:00,27.0,14.1,30.30,WSW,248,1.1,1.1,58,0.00,,,0.00,WUHU216HW,2013-01-20 11:37:00,
2013-01-20 03:42:00,27.0,14.1,30.30,West,270,1.6,1.6,58,0.00,,,0.00,WUHU216HW,2013-01-20 11:42:00,
2013-01-20 03:47:00,27.0,14.5,30.30,WNW,293,0.4,2.0,59,0.00,,,0.00,WUHU216HW,2013-01-20 11:47:00,
2013-01-20 03:52:00,26.8,14.0,30.31,North,0,0.4,2.0,58,0.00,,,0.00,WUHU216HW,2013-01-20 11:52:00,
2013-01-20 03:57:00,26.6,14.1,30.31,North,0,0.0,2.5,59,0.00,,,0.00,WUHU216HW,2013-01-20 11:57:00,
2013-01-20 04:02:00,26.5,14.1,30.31,SSW,203,1.6,2.5,59,0.00,,,0.00,WUHU216HW,2013-01-20 12:02:00,
2013-01-20 04:07:00,26.3,13.9,30.31,WNW,293,0.4,2.7,59,0.00,,,0.00,WUHU216HW,2013-01-20 12:07:00,
2013-01-20 04:13:00,26.3,13.9,30.31,SSW,203,1.8,2.7,59,0.00,,,0.00,WUHU216HW,2013-01-20 12:13:00,
2013-01-20 04:18:00,26.3,13.9,30.31,SE,135,0.2,3.1,59,0.00,,,0.00,WUHU216HW,2013-01-20 12:18:00,
2013-01-20 04:23:00,26.3,13.9,30.30,SSW,203,1.8,3.1,59,0.00,,,0.00,WUHU216HW,2013-01-20 12:23:00,
2013-01-20 04:28:00,25.9,13.5,30.30,West,270,0.2,2.0,59,0.00,,,0.00,WUHU216HW,2013-01-20 12:28:00,
2013-01-20 04:33:00,25.9,13.5,30.30,SSW,203,1.6,1.8,59,0.00,,,0.00,WUHU216HW,2013-01-20 12:33:00,
2013-01-20 04:38:00,25.7,13.3,30.30,SW,225,1.3,1.8,59,0.00,,,0.00,WUHU216HW,2013-01-20 12:38:00,
2013-01-20 04:43:00,25.6,13.2,30.30,South,180,1.3,1.3,59,0.00,,,0.00,WUHU216HW,2013-01-20 12:43:00,
2013-01-20 04:48:00,25.6,13.2,30.30,West,270,0.4,1.3,59,0.00,,,0.00,WUHU216HW,2013-01-20 12:48:00,
2013-01-20 04:53:00,25.6,13.6,30.30,SSW,203,1.8,1.8,60,0.00,,,0.00,WUHU216HW,2013-01-20 12:53:00,
2013-01-20 04:58:00,25.4,13.1,30.30,West,270,0.7,1.8,59,0.00,,,0.00,WUHU216HW,2013-01-20 12:58:00,
2013-01-20 05:03:00,25.2,12.9,30.30,SW,225,2.2,2.2,59,0.00,,,0.00,WUHU216HW,2013-01-20 13:03:00,
2013-01-20 05:08:00,25.2,13.3,30.30,NW,315,1.1,2.2,60,0.00,,,0.00,WUHU216HW,2013-01-20 13:08:00,
2013-01-20 05:13:00,25.0,13.2,30.30,NW,315,1.1,2.2,60,0.00,,,0.00,WUHU216HW,2013-01-20 13:13:00,
2013-01-20 05:18:00,24.8,13.3,30.30,NW,315,0.7,2.2,61,0.00,,,0.00,WUHU216HW,2013-01-20 13:18:00,
2013-01-20 05:23:00,24.8,13.3,30.29,NW,315,0.0,1.1,61,0.00,,,0.00,WUHU216HW,2013-01-20 13:23:00,
2013-01-20 05:28:00,24.5,13.0,30.29,NNW,338,0.9,1.8,61,0.00,,,0.00,WUHU216HW,2013-01-20 13:28:00,
2013-01-20 05:34:00,24.5,13.3,30.29,WNW,293,1.8,3.4,62,0.00,,,0.00,WUHU216HW,2013-01-20 13:34:00,
2013-01-20 05:39:00,24.1,12.6,30.29,WSW,248,0.7,4.3,61,0.00,,,0.00,WUHU216HW,2013-01-20 13:39:00,
2013-01-20 05:44:00,24.1,12.6,30.29,North,0,0.2,4.9,61,0.00,,,0.00,WUHU216HW,2013-01-20 13:44:00,
2013-01-20 05:49:00,23.9,12.4,30.29,WSW,248,1.1,4.9,61,0.00,,,0.00,WUHU216HW,2013-01-20 13:49:00,
2013-01-20 05:54:00,23.8,12.3,30.29,SSW,203,0.9,4.0,61,0.00,,,0.00,WUHU216HW,2013-01-20 13:54:00,
2013-01-20 05:59:00,23.6,12.4,30.29,WNW,293,0.9,4.0,62,0.00,,,0.00,WUHU216HW,2013-01-20 13:59:00,
2013-01-20 06:04:00,23.4,12.3,30.29,WSW,248,0.4,4.7,62,0.00,,,0.00,WUHU216HW,2013-01-20 14:04:00,
2013-01-20 06:09:00,23.2,12.1,30.29,West,270,3.4,4.7,62,0.00,,,0.00,WUHU216HW,2013-01-20 14:09:00,
2013-01-20 06:14:00,23.2,12.8,30.29,NW,315,3.1,4.0,64,0.00,,,0.00,WUHU216HW,2013-01-20 14:14:00,
2013-01-20 06:19:00,23.0,12.6,30.28,North,0,0.9,7.4,64,0.00,,,0.00,WUHU216HW,2013-01-20 14:19:00,
2013-01-20 06:24:00,23.0,12.2,30.28,SSW,203,2.7,7.4,63,0.00,,,0.00,WUHU216HW,2013-01-20 14:24:00,
2013-01-20 06:29:00,22.9,12.4,30.28,SSW,203,0.7,2.7,64,0.00,,,0.00,WUHU216HW,2013-01-20 14:29:00,
2013-01-20 06:34:00,22.7,12.2,30.28,WSW,248,0.0,1.6,64,0.00,,,0.00,WUHU216HW,2013-01-20 14:34:00,
2013-01-20 06:39:00,22.7,12.2,30.28,SW,225,1.6,2.5,64,0.00,,,0.00,WUHU216HW,2013-01-20 14:39:00,
2013-01-20 06:44:00,22.7,12.2,30.29,WNW,293,0.0,2.5,64,0.00,,,0.00,WUHU216HW,2013-01-20 14:44:00,
2013-01-20 06:49:00,22.7,12.6,30.29,SSE,158,2.2,4.3,65,0.00,,,0.00,WUHU216HW,2013-01-20 14:49:00,
2013-01-20 06:54:00,22.7,12.6,30.29,North,0,2.9,4.3,65,0.00,,,0.00,WUHU216HW,2013-01-20 14:54:00,
2013-01-20 06:59:00,22.7,12.6,30.28,WSW,248,2.5,3.4,65,0.00,,,0.00,WUHU216HW,2013-01-20 14:59:00,
2013-01-20 07:04:00,22.7,12.6,30.29,SW,225,1.6,3.4,65,0.00,,,0.00,WUHU216HW,2013-01-20 15:04:00,
2013-01-20 07:09:00,22.7,12.6,30.29,SW,225,2.0,3.4,65,0.00,,,0.00,WUHU216HW,2013-01-20 15:09:00,
2013-01-20 07:14:00,22.5,12.4,30.28,SW,225,1.1,3.4,65,0.00,,,0.00,WUHU216HW,2013-01-20 15:14:00,
2013-01-20 07:19:00,22.5,12.8,30.29,WSW,248,1.1,2.2,66,0.00,,,0.00,WUHU216HW,2013-01-20 15:19:00,
2013-01-20 07:24:00,22.5,12.4,30.29,SW,225,0.9,2.9,65,0.00,,,0.00,WUHU216HW,2013-01-20 15:24:00,
2013-01-20 07:29:00,22.3,12.2,30.29,WSW,248,1.1,4.9,65,0.00,,,0.00,WUHU216HW,2013-01-20 15:29:00,
2013-01-20 07:34:00,22.3,12.6,30.29,WSW,248,0.4,6.9,66,0.00,,,0.00,WUHU216HW,2013-01-20 15:34:00,
2013-01-20 07:39:00,22.3,12.2,30.28,SW,225,1.1,6.9,65,0.00,,,0.00,WUHU216HW,2013-01-20 15:39:00,
2013-01-20 07:44:00,22.1,12.1,30.29,WSW,248,0.4,6.3,65,0.00,,,0.00,WUHU216HW,2013-01-20 15:44:00,
2013-01-20 07:49:00,22.1,12.1,30.29,West,270,1.8,4.0,65,0.00,,,0.00,WUHU216HW,2013-01-20 15:49:00,
2013-01-20 07:55:00,22.1,12.1,30.29,SSE,158,0.2,1.8,65,0.00,,,0.00,WUHU216HW,2013-01-20 15:55:00,
2013-01-20 08:00:00,22.1,12.4,30.29,SW,225,5.4,5.4,66,0.00,,,0.00,WUHU216HW,2013-01-20 16:00:00,
2013-01-20 08:05:00,22.1,12.1,30.29,North,0,1.1,5.4,65,0.00,,,0.00,WUHU216HW,2013-01-20 16:05:00,
2013-01-20 08:10:00,22.1,12.1,30.29,West,270,1.1,3.6,65,0.00,,,0.00,WUHU216HW,2013-01-20 16:10:00,
2013-01-20 08:15:00,22.3,12.6,30.29,WSW,248,1.3,2.7,66,0.00,,,0.00,WUHU216HW,2013-01-20 16:15:00,
2013-01-20 08:20:00,22.3,12.2,30.29,NW,315,2.2,2.7,65,0.00,,,0.00,WUHU216HW,2013-01-20 16:20:00,
2013-01-20 08:25:00,22.5,12.8,30.29,West,270,2.7,2.7,66,0.00,,,0.00,WUHU216HW,2013-01-20 16:25:00,
2013-01-20 08:30:00,22.7,13.0,30.29,NNW,338,0.0,3.1,66,0.00,,,0.00,WUHU216HW,2013-01-20 16:30:00,
2013-01-20 08:35:00,22.9,12.8,30.30,West,270,0.2,3.1,65,0.00,,,0.00,WUHU216HW,2013-01-20 16:35:00,
2013-01-20 08:40:00,23.0,13.0,30.30,South,180,2.5,4.0,65,0.00,,,0.00,WUHU216HW,2013-01-20 16:40:00,
2013-01-20 08:45:00,23.4,13.3,30.30,SW,225,0.2,4.0,65,0.00,,,0.00,WUHU216HW,2013-01-20 16:45:00,
2013-01-20 08:50:00,23.4,13.3,30.30,SW,225,0.4,3.8,65,0.00,,,0.00,WUHU216HW,2013-01-20 16:50:00,
2013-01-20 08:55:00,23.8,13.7,30.30,SW,225,2.9,2.9,65,0.00,,,0.00,WUHU216HW,2013-01-20 16:55:00,
2013-01-20 09:00:00,23.9,13.5,30.30,NW,315,0.2,2.9,64,0.00,,,0.00,WUHU216HW,2013-01-20 17:00:00,
2013-01-20 09:05:00,24.3,13.8,30.31,SW,225,5.1,5.1,64,0.00,,,0.00,WUHU216HW,2013-01-20 17:05:00,
2013-01-20 09:10:00,24.5,14.0,30.31,South,180,1.8,5.1,64,0.00,,,0.00,WUHU216HW,2013-01-20 17:10:00,
2013-01-20 09:15:00,25.0,14.5,30.31,SSW,203,2.5,4.0,64,0.00,,,0.00,WUHU216HW,2013-01-20 17:15:00,
2013-01-20 09:21:00,25.4,14.5,30.31,West,270,0.4,4.0,63,0.00,,,0.00,WUHU216HW,2013-01-20 17:21:00,
2013-01-20 09:26:00,25.6,14.7,30.31,SSE,158,0.4,4.0,63,0.00,,,0.00,WUHU216HW,2013-01-20 17:26:00,
2013-01-20 09:31:00,25.9,15.0,30.32,SW,225,3.1,6.3,63,0.00,,,0.00,WUHU216HW,2013-01-20 17:31:00,
2013-01-20 09:36:00,26.3,14.9,30.32,SW,225,4.7,6.3,62,0.00,,,0.00,WUHU216HW,2013-01-20 17:36:00,
2013-01-20 09:41:00,27.0,15.7,30.32,SSW,203,2.0,4.7,62,0.00,,,0.00,WUHU216HW,2013-01-20 17:41:00,
2013-01-20 09:46:00,27.4,16.0,30.32,SE,135,2.5,5.4,62,0.00,,,0.00,WUHU216HW,2013-01-20 17:46:00,
2013-01-20 09:51:00,27.7,16.4,30.32,SSW,203,1.1,5.4,62,0.00,,,0.00,WUHU216HW,2013-01-20 17:51:00,
2013-01-20 09:56:00,28.1,16.7,30.32,South,180,2.5,3.1,62,0.00,,,0.00,WUHU216HW,2013-01-20 17:56:00,
2013-01-20 10:01:00,28.4,17.1,30.32,SW,225,1.3,3.1,62,0.00,,,0.00,WUHU216HW,2013-01-20 18:01:00,
2013-01-20 10:06:00,28.8,17.1,30.32,WSW,248,1.6,4.0,61,0.00,,,0.00,WUHU216HW,2013-01-20 18:06:00,
2013-01-20 10:11:00,29.3,17.6,30.33,SSW,203,4.9,4.9,61,0.00,,,0.00,WUHU216HW,2013-01-20 18:11:00,
2013-01-20 10:16:00,29.9,17.6,30.32,SW,225,0.7,4.9,60,0.00,,,0.00,WUHU216HW,2013-01-20 18:16:00,
2013-01-20 10:21:00,30.2,18.0,30.32,SSW,203,2.7,3.4,60,0.00,,,0.00,WUHU216HW,2013-01-20 18:21:00,
2013-01-20 10:26:00,30.6,17.9,30.33,SW,225,4.0,4.5,59,0.00,,,0.00,WUHU216HW,2013-01-20 18:26:00,
2013-01-20 10:31:00,31.1,18.5,30.32,SSW,203,3.4,4.5,59,0.00,,,0.00,WUHU216HW,2013-01-20 18:31:00,
2013-01-20 10:36:00,31.5,18.5,30.32,SW,225,1.8,3.4,58,0.00,,,0.00,WUHU216HW,2013-01-20 18:36:00,
2013-01-20 10:41:00,32.0,18.9,30.32,WSW,248,3.1,3.4,58,0.00,,,0.00,WUHU216HW,2013-01-20 18:41:00,
2013-01-20 10:46:00,32.6,19.0,30.33,South,180,5.1,5.6,57,0.00,,,0.00,WUHU216HW,2013-01-20 18:46:00,
2013-01-20 10:51:00,32.9,19.4,30.32,SSW,203,2.7,5.6,57,0.00,,,0.00,WUHU216HW,2013-01-20 18:51:00,
2013-01-20 10:57:00,33.3,19.2,30.32,SSW,203,3.4,4.7,56,0.00,,,0.00,WUHU216HW,2013-01-20 18:57:00,
2013-01-20 11:02:00,33.7,19.5,30.32,SSW,203,1.3,4.5,56,0.00,,,0.00,WUHU216HW,2013-01-20 19:02:00,
2013-01-20 11:07:00,34.0,19.9,30.32,SSW,203,1.1,4.5,56,0.00,,,0.00,WUHU216HW,2013-01-20 19:07:00,
2013-01-20 11:12:00,34.4,19.8,30.31,SW,225,5.6,5.6,55,0.00,,,0.00,WUHU216HW,2013-01-20 19:12:00,
2013-01-20 11:17:00,34.9,20.3,30.31,SW,225,3.8,5.8,55,0.00,,,0.00,WUHU216HW,2013-01-20 19:17:00,
2013-01-20 11:22:00,35.5,20.4,30.31,WSW,248,3.1,5.8,54,0.00,,,0.00,WUHU216HW,2013-01-20 19:22:00,
2013-01-20 11:27:00,36.0,21.0,30.31,SW,225,4.5,5.4,54,0.00,,,0.00,WUHU216HW,2013-01-20 19:27:00,
2013-01-20 11:32:00,36.4,20.9,30.31,SW,225,1.8,4.5,53,0.00,,,0.00,WUHU216HW,2013-01-20 19:32:00,
2013-01-20 11:37:00,36.7,20.7,30.31,SSW,203,3.6,4.5,52,0.00,,,0.00,WUHU216HW,2013-01-20 19:37:00,
2013-01-20 11:42:00,37.4,21.8,30.30,SW,225,2.2,4.0,53,0.00,,,0.00,WUHU216HW,2013-01-20 19:42:00,
2013-01-20 11:47:00,37.8,21.7,30.30,WSW,248,1.3,4.5,52,0.00,,,0.00,WUHU216HW,2013-01-20 19:47:00,
2013-01-20 11:52:00,38.2,22.1,30.30,SSW,203,3.4,4.5,52,0.00,,,0.00,WUHU216HW,2013-01-20 19:52:00,
2013-01-20 11:57:00,38.5,22.3,30.30,SW,225,2.0,4.0,52,0.00,,,0.00,WUHU216HW,2013-01-20 19:57:00,
2013-01-20 12:02:00,38.9,22.2,30.30,South,180,1.8,4.0,51,0.00,,,0.00,WUHU216HW,2013-01-20 20:02:00,
2013-01-20 12:07:00,39.2,22.1,30.29,SSW,203,2.7,4.3,50,0.00,,,0.00,WUHU216HW,2013-01-20 20:07:00,
2013-01-20 12:12:00,39.8,22.6,30.29,SSW,203,1.6,4.3,50,0.00,,,0.00,WUHU216HW,2013-01-20 20:12:00,
2013-01-20 12:17:00,40.3,22.6,30.29,SSW,203,1.1,4.0,49,0.00,,,0.00,WUHU216HW,2013-01-20 20:17:00,
2013-01-20 12:23:00,40.5,22.8,30.29,SSW,203,3.1,3.6,49,0.00,,,0.00,WUHU216HW,2013-01-20 20:23:00,
2013-01-20 12:28:00,40.7,22.4,30.29,SW,225,1.3,4.7,48,0.00,,,0.00,WUHU216HW,2013-01-20 20:28:00,
2013-01-20 12:33:00,40.7,21.9,30.29,WSW,248,2.5,4.7,47,0.00,,,0.00,WUHU216HW,2013-01-20 20:33:00,
2013-01-20 12:38:00,41.0,22.2,30.29,SW,225,0.9,3.1,47,0.00,,,0.00,WUHU216HW,2013-01-20 20:38:00,
2013-01-20 12:43:00,41.2,21.9,30.28,SW,225,0.4,3.1,46,0.00,,,0.00,WUHU216HW,2013-01-20 20:43:00,
2013-01-20 12:48:00,41.4,21.5,30.28,SW,225,1.8,2.5,45,0.00,,,0.00,WUHU216HW,2013-01-20 20:48:00,
2013-01-20 12:53:00,42.1,22.1,30.28,SSE,158,1.6,2.5,45,0.00,,,0.00,WUHU216HW,2013-01-20 20:53:00,
2013-01-20 12:58:00,42.5,23.0,30.28,SW,225,1.8,3.1,46,0.00,,,0.00,WUHU216HW,2013-01-20 20:58:00,
2013-01-20 13:03:00,42.8,22.9,30.28,SSW,203,1.6,3.1,45,0.00,,,0.00,WUHU216HW,2013-01-20 21:03:00,
2013-01-20 13:08:00,43.2,22.7,30.28,SW,225,1.8,3.1,44,0.00,,,0.00,WUHU216HW,2013-01-20 21:08:00,
2013-01-20 13:13:00,43.2,22.2,30.28,South,180,2.5,3.1,43,0.00,,,0.00,WUHU216HW,2013-01-20 21:13:00,
2013-01-20 13:18:00,43.6,22.4,30.28,SW,225,1.8,3.8,43,0.00,,,0.00,WUHU216HW,2013-01-20 21:18:00,
2013-01-20 13:23:00,43.6,21.9,30.27,SSE,158,2.5,3.8,42,0.00,,,0.00,WUHU216HW,2013-01-20 21:23:00,
2013-01-20 13:28:00,43.9,22.8,30.27,SE,135,4.0,4.0,43,0.00,,,0.00,WUHU216HW,2013-01-20 21:28:00,
2013-01-20 13:33:00,44.1,22.4,30.27,SSW,203,1.8,5.1,42,0.00,,,0.00,WUHU216HW,2013-01-20 21:33:00,
2013-01-20 13:38:00,44.1,22.4,30.27,SSE,158,4.7,5.1,42,0.00,,,0.00,WUHU216HW,2013-01-20 21:38:00,
2013-01-20 13:43:00,44.3,22.0,30.27,SE,135,0.9,4.7,41,0.00,,,0.00,WUHU216HW,2013-01-20 21:43:00,
2013-01-20 13:48:00,44.1,21.9,30.27,SE,135,2.2,3.8,41,0.00,,,0.00,WUHU216HW,2013-01-20 21:48:00,
2013-01-20 13:53:00,44.3,21.4,30.27,WSW,248,1.1,3.8,40,0.00,,,0.00,WUHU216HW,2013-01-20 21:53:00,
2013-01-20 13:58:00,44.3,22.0,30.27,ENE,68,2.7,3.8,41,0.00,,,0.00,WUHU216HW,2013-01-20 21:58:00,
2013-01-20 14:03:00,44.5,21.6,30.27,South,180,1.1,3.8,40,0.00,,,0.00,WUHU216HW,2013-01-20 22:03:00,
2013-01-20 14:08:00,44.6,21.8,30.26,South,180,1.8,3.1,40,0.00,,,0.00,WUHU216HW,2013-01-20 22:08:00,
2013-01-20 14:13:00,44.8,22.0,30.26,SSE,158,1.8,2.9,40,0.00,,,0.00,WUHU216HW,2013-01-20 22:13:00,
2013-01-20 14:18:00,45.0,22.2,30.26,SW,225,1.3,3.4,40,0.00,,,0.00,WUHU216HW,2013-01-20 22:18:00,
2013-01-20 14:23:00,45.0,22.2,30.26,SSE,158,1.1,3.4,40,0.00,,,0.00,WUHU216HW,2013-01-20 22:23:00,
2013-01-20 14:28:00,45.2,22.2,30.26,SE,135,4.7,4.7,40,0.00,,,0.00,WUHU216HW,2013-01-20 22:28:00,
2013-01-20 14:33:00,45.4,21.8,30.26,SE,135,0.7,4.7,39,0.00,,,0.00,WUHU216HW,2013-01-20 22:33:00,
2013-01-20 14:38:00,45.4,21.8,30.26,SSW,203,1.8,4.3,39,0.00,,,0.00,WUHU216HW,2013-01-20 22:38:00,
2013-01-20 14:43:00,45.5,21.2,30.26,SW,225,0.4,4.3,38,0.00,,,0.00,WUHU216HW,2013-01-20 22:43:00,
2013-01-20 14:48:00,45.4,21.8,30.26,SSE,158,2.5,2.7,39,0.00,,,0.00,WUHU216HW,2013-01-20 22:48:00,
2013-01-20 14:53:00,45.5,22.0,30.26,SSW,203,3.4,4.0,39,0.00,,,0.00,WUHU216HW,2013-01-20 22:53:00,
2013-01-20 14:58:00,45.7,22.1,30.26,East,90,0.4,4.0,39,0.00,,,0.00,WUHU216HW,2013-01-20 22:58:00,
2013-01-20 15:03:00,45.7,21.4,30.26,SSE,158,0.9,3.1,38,0.00,,,0.00,WUHU216HW,2013-01-20 23:03:00,
2013-01-20 15:08:00,45.7,22.1,30.26,SE,135,2.5,3.8,39,0.00,,,0.00,WUHU216HW,2013-01-20 23:08:00,
2013-01-20 15:13:00,45.7,22.1,30.26,South,180,1.1,3.8,39,0.00,,,0.00,WUHU216HW,2013-01-20 23:13:00,
2013-01-20 15:18:00,45.7,22.1,30.26,SSE,158,0.4,3.4,39,0.00,,,0.00,WUHU216HW,2013-01-20 23:18:00,
2013-01-20 15:23:00,45.7,22.1,30.26,SE,135,2.0,4.0,39,0.00,,,0.00,WUHU216HW,2013-01-20 23:23:00,
2013-01-20 15:28:00,45.7,22.1,30.26,SSE,158,0.0,4.0,39,0.00,,,0.00,WUHU216HW,2013-01-20 23:28:00,
2013-01-20 15:33:00,45.5,20.6,30.26,NE,45,0.0,2.5,37,0.00,,,0.00,WUHU216HW,2013-01-20 23:33:00,
2013-01-20 15:39:00,45.7,22.1,30.26,ESE,113,1.8,2.5,39,0.00,,,0.00,WUHU216HW,2013-01-20 23:39:00,
2013-01-20 15:44:00,45.5,21.2,30.26,ESE,113,1.3,2.5,38,0.00,,,0.00,WUHU216HW,2013-01-20 23:44:00,
2013-01-20 15:49:00,45.5,21.2,30.25,SSE,158,0.9,2.7,38,0.00,,,0.00,WUHU216HW,2013-01-20 23:49:00,
2013-01-20 15:54:00,45.4,21.8,30.25,SSE,158,2.2,2.7,39,0.00,,,0.00,WUHU216HW,2013-01-20 23:54:00,
2013-01-20 15:59:00,45.2,21.6,30.25,SSE,158,0.4,3.6,39,0.00,,,0.00,WUHU216HW,2013-01-20 23:59:00,
2013-01-20 16:04:00,45.2,21.6,30.25,SSW,203,0.4,3.6,39,0.00,,,0.00,WUHU216HW,2013-01-21 00:04:00,
2013-01-20 16:09:00,45.4,21.8,30.25,ESE,113,0.4,1.6,39,0.00,,,0.00,WUHU216HW,2013-01-21 00:09:00,
2013-01-20 16:14:00,45.0,21.4,30.25,ENE,68,0.7,1.6,39,0.00,,,0.00,WUHU216HW,2013-01-21 00:14:00,
2013-01-20 16:19:00,44.8,21.2,30.25,NNE,23,1.1,1.6,39,0.00,,,0.00,WUHU216HW,2013-01-21 00:19:00,
2013-01-20 16:24:00,44.6,21.2,30.25,East,90,0.4,1.3,39,0.00,,,0.00,WUHU216HW,2013-01-21 00:24:00,
2013-01-20 16:29:00,44.3,20.8,30.25,East,90,0.4,2.2,39,0.00,,,0.00,WUHU216HW,2013-01-21 00:29:00,
2013-01-20 16:34:00,44.1,21.3,30.25,East,90,2.2,2.7,40,0.00,,,0.00,WUHU216HW,2013-01-21 00:34:00,
2013-01-20 16:39:00,43.7,21.0,30.25,NE,45,1.8,2.7,40,0.00,,,0.00,WUHU216HW,2013-01-21 00:39:00,
2013-01-20 16:44:00,43.4,20.6,30.25,NE,45,1.8,1.8,40,0.00,,,0.00,WUHU216HW,2013-01-21 00:44:00,
2013-01-20 16:49:00,42.8,20.7,30.25,ENE,68,1.1,1.8,41,0.00,,,0.00,WUHU216HW,2013-01-21 00:49:00,
2013-01-20 16:54:00,42.5,20.3,30.25,NE,45,1.3,1.6,41,0.00,,,0.00,WUHU216HW,2013-01-21 00:54:00,
2013-01-20 16:59:00,41.9,20.4,30.24,NE,45,0.7,1.3,42,0.00,,,0.00,WUHU216HW,2013-01-21 00:59:00,
2013-01-20 17:04:00,41.4,19.9,30.24,NE,45,0.7,1.1,42,0.00,,,0.00,WUHU216HW,2013-01-21 01:04:00,
2013-01-20 17:09:00,41.0,20.1,30.24,NE,45,0.7,0.9,43,0.00,,,0.00,WUHU216HW,2013-01-21 01:09:00,
2013-01-20 17:14:00,40.7,19.8,30.24,NE,45,0.9,0.9,43,0.00,,,0.00,WUHU216HW,2013-01-21 01:14:00,
2013-01-20 17:19:00,40.1,19.8,30.24,NE,45,0.7,0.9,44,0.00,,,0.00,WUHU216HW,2013-01-21 01:19:00,
2013-01-20 17:24:00,40.0,19.6,30.25,NE,45,0.7,0.9,44,0.00,,,0.00,WUHU216HW,2013-01-21 01:24:00,
2013-01-20 17:29:00,39.6,19.9,30.25,NE,45,0.7,0.9,45,0.00,,,0.00,WUHU216HW,2013-01-21 01:29:00,
2013-01-20 17:34:00,39.2,19.5,30.24,NE,45,0.4,0.9,45,0.00,,,0.00,WUHU216HW,2013-01-21 01:34:00,
2013-01-20 17:39:00,39.2,19.5,30.24,NE,45,0.7,1.1,45,0.00,,,0.00,WUHU216HW,2013-01-21 01:39:00,
2013-01-20 17:44:00,38.9,19.7,30.24,ENE,68,0.4,1.1,46,0.00,,,0.00,WUHU216HW,2013-01-21 01:44:00,
2013-01-20 17:49:00,38.9,19.7,30.24,NNE,23,0.7,0.9,46,0.00,,,0.00,WUHU216HW,2013-01-21 01:49:00,
2013-01-20 17:54:00,38.7,19.5,30.24,NE,45,0.4,0.7,46,0.00,,,0.00,WUHU216HW,2013-01-21 01:54:00,
2013-01-20 17:59:00,38.5,19.5,30.24,NE,45,0.7,0.7,46,0.00,,,0.00,WUHU216HW,2013-01-21 01:59:00,
2013-01-20 18:04:00,38.5,19.5,30.24,NNE,23,0.4,0.7,46,0.00,,,0.00,WUHU216HW,2013-01-21 02:04:00,
2013-01-20 18:09:00,38.2,19.6,30.24,North,0,0.0,0.4,47,0.00,,,0.00,WUHU216HW,2013-01-21 02:09:00,
2013-01-20 18:14:00,37.8,18.7,30.24,NW,315,0.9,1.1,46,0.00,,,0.00,WUHU216HW,2013-01-21 02:14:00,
2013-01-20 18:19:00,37.8,18.7,30.24,NW,315,1.1,1.1,46,0.00,,,0.00,WUHU216HW,2013-01-21 02:19:00,
2013-01-20 18:24:00,37.3,18.8,30.24,NNW,338,0.4,1.1,47,0.00,,,0.00,WUHU216HW,2013-01-21 02:24:00,
2013-01-20 18:29:00,37.1,18.6,30.24,NNW,338,0.4,1.1,47,0.00,,,0.00,WUHU216HW,2013-01-21 02:29:00,
2013-01-20 18:34:00,36.7,18.3,30.24,NNW,338,0.0,0.4,47,0.00,,,0.00,WUHU216HW,2013-01-21 02:34:00,
2013-01-20 18:39:00,36.5,18.6,30.24,North,0,1.1,1.1,48,0.00,,,0.00,WUHU216HW,2013-01-21 02:39:00,
2013-01-20 18:44:00,36.4,19.0,30.24,North,0,1.6,1.6,49,0.00,,,0.00,WUHU216HW,2013-01-21 02:44:00,
2013-01-20 18:49:00,36.5,19.2,30.24,NW,315,1.6,2.5,49,0.00,,,0.00,WUHU216HW,2013-01-21 02:49:00,
2013-01-20 18:54:00,36.7,18.8,30.24,SW,225,0.7,4.5,48,0.00,,,0.00,WUHU216HW,2013-01-21 02:54:00,
2013-01-20 18:59:00,36.9,19.0,30.24,North,0,0.2,4.5,48,0.00,,,0.00,WUHU216HW,2013-01-21 02:59:00,
2013-01-20 19:05:00,36.9,18.5,30.25,West,270,0.7,1.3,47,0.00,,,0.00,WUHU216HW,2013-01-21 03:05:00,
2013-01-20 19:10:00,36.4,18.0,30.25,North,0,0.7,1.3,47,0.00,,,0.00,WUHU216HW,2013-01-21 03:10:00,
2013-01-20 19:15:00,35.6,17.8,30.25,SSW,203,0.0,1.1,48,0.00,,,0.00,WUHU216HW,2013-01-21 03:15:00,
2013-01-20 19:20:00,35.1,17.4,30.25,West,270,0.4,1.1,48,0.00,,,0.00,WUHU216HW,2013-01-21 03:20:00,
2013-01-20 19:25:00,34.7,17.0,30.25,North,0,0.4,1.1,48,0.00,,,0.00,WUHU216HW,2013-01-21 03:25:00,
2013-01-20 19:30:00,34.6,17.3,30.25,WNW,293,0.0,0.7,49,0.00,,,0.00,WUHU216HW,2013-01-21 03:30:00,
2013-01-20 19:35:00,34.4,17.6,30.25,ENE,68,0.0,0.4,50,0.00,,,0.00,WUHU216HW,2013-01-21 03:35:00,
2013-01-20 19:40:00,34.2,17.5,30.25,West,270,0.2,0.2,50,0.00,,,0.00,WUHU216HW,2013-01-21 03:40:00,
2013-01-20 19:45:00,34.0,17.3,30.25,WNW,293,3.6,3.6,50,0.00,,,0.00,WUHU216HW,2013-01-21 03:45:00,
2013-01-20 19:50:00,33.7,16.9,30.25,WNW,293,1.1,3.6,50,0.00,,,0.00,WUHU216HW,2013-01-21 03:50:00,
2013-01-20 19:55:00,33.5,16.3,30.25,WSW,248,0.0,2.5,49,0.00,,,0.00,WUHU216HW,2013-01-21 03:55:00,
2013-01-20 20:00:00,33.5,15.8,30.25,WSW,248,2.5,4.9,48,0.00,,,0.00,WUHU216HW,2013-01-21 04:00:00,
2013-01-20 20:05:00,33.5,15.8,30.25,North,0,0.9,4.9,48,0.00,,,0.00,WUHU216HW,2013-01-21 04:05:00,
2013-01-20 20:10:00,33.5,15.3,30.25,SW,225,2.5,2.9,47,0.00,,,0.00,WUHU216HW,2013-01-21 04:10:00,
2013-01-20 20:15:00,33.5,15.3,30.25,South,180,2.7,4.0,47,0.00,,,0.00,WUHU216HW,2013-01-21 04:15:00,
2013-01-20 20:20:00,33.5,15.3,30.25,SW,225,1.8,4.0,47,0.00,,,0.00,WUHU216HW,2013-01-21 04:20:00,
2013-01-20 20:25:00,33.5,15.3,30.25,SW,225,2.7,3.4,47,0.00,,,0.00,WUHU216HW,2013-01-21 04:25:00,
2013-01-20 20:30:00,33.3,15.1,30.25,West,270,0.4,4.7,47,0.00,,,0.00,WUHU216HW,2013-01-21 04:30:00,
2013-01-20 20:35:00,33.1,14.9,30.25,SE,135,0.2,4.7,47,0.00,,,0.00,WUHU216HW,2013-01-21 04:35:00,
2013-01-20 20:40:00,32.8,14.6,30.25,SSE,158,0.7,2.5,47,0.00,,,0.00,WUHU216HW,2013-01-21 04:40:00,
2013-01-20 20:46:00,32.6,14.5,30.25,SE,135,0.4,2.5,47,0.00,,,0.00,WUHU216HW,2013-01-21 04:46:00,
2013-01-20 20:51:00,32.4,14.3,30.25,SE,135,0.2,1.3,47,0.00,,,0.00,WUHU216HW,2013-01-21 04:51:00,
2013-01-20 20:56:00,32.0,14.5,30.25,South,180,0.2,2.5,48,0.00,,,0.00,WUHU216HW,2013-01-21 04:56:00,
2013-01-20 21:00:00,32.0,14.5,30.25,SSE,158,0.4,2.5,48,0.00,,,0.00,WUHU216HW,2013-01-21 05:00:00,
2013-01-20 21:02:00,31.9,14.3,30.25,East,90,0.7,2.5,48,0.00,,,0.00,WUHU216HW,2013-01-21 05:02:00,
2013-01-20 21:03:00,31.9,14.3,30.25,NNE,23,0.2,2.5,48,0.00,,,0.00,WUHU216HW,2013-01-21 05:03:00,
2013-01-20 21:09:00,31.5,14.0,30.25,NNE,23,0.4,1.6,48,0.00,,,0.00,WUHU216HW,2013-01-21 05:09:00,
2013-01-20 21:14:00,31.3,14.3,30.25,SE,135,0.0,1.6,49,0.00,,,0.00,WUHU216HW,2013-01-21 05:14:00,
2013-01-20 21:19:00,31.1,14.1,30.25,NE,45,0.4,1.1,49,0.00,,,0.00,WUHU216HW,2013-01-21 05:19:00,
2013-01-20 21:24:00,30.8,14.3,30.25,WNW,293,0.4,0.7,50,0.00,,,0.00,WUHU216HW,2013-01-21 05:24:00,
2013-01-20 21:29:00,30.6,14.2,30.25,WNW,293,1.8,1.8,50,0.00,,,0.00,WUHU216HW,2013-01-21 05:29:00,
2013-01-20 21:34:00,30.6,14.2,30.26,WNW,293,0.2,3.4,50,0.00,,,0.00,WUHU216HW,2013-01-21 05:34:00,
2013-01-20 21:39:00,30.6,14.2,30.25,WNW,293,0.0,3.4,50,0.00,,,0.00,WUHU216HW,2013-01-21 05:39:00,
2013-01-20 21:44:00,30.6,14.2,30.26,WSW,248,1.8,3.4,50,0.00,,,0.00,WUHU216HW,2013-01-21 05:44:00,
2013-01-20 21:49:00,30.6,14.2,30.25,WNW,293,0.7,3.4,50,0.00,,,0.00,WUHU216HW,2013-01-21 05:49:00,
2013-01-20 21:54:00,30.4,14.1,30.25,NW,315,0.7,3.1,50,0.00,,,0.00,WUHU216HW,2013-01-21 05:54:00,
2013-01-20 21:59:00,30.2,13.9,30.25,West,270,1.8,2.7,50,0.00,,,0.00,WUHU216HW,2013-01-21 05:59:00,
2013-01-20 22:04:00,30.1,14.1,30.25,West,270,1.8,3.4,51,0.00,,,0.00,WUHU216HW,2013-01-21 06:04:00,
2013-01-20 22:09:00,29.9,14.0,30.25,NNE,23,1.1,3.6,51,0.00,,,0.00,WUHU216HW,2013-01-21 06:09:00,
2013-01-20 22:14:00,30.1,14.5,30.25,NW,315,3.6,3.6,52,0.00,,,0.00,WUHU216HW,2013-01-21 06:14:00,
2013-01-20 22:19:00,30.2,14.3,30.25,NNW,338,1.8,3.8,51,0.00,,,0.00,WUHU216HW,2013-01-21 06:19:00,
2013-01-20 22:24:00,30.2,14.3,30.25,SSW,203,1.3,3.8,51,0.00,,,0.00,WUHU216HW,2013-01-21 06:24:00,
2013-01-20 22:29:00,30.1,14.1,30.24,South,180,0.2,1.3,51,0.00,,,0.00,WUHU216HW,2013-01-21 06:29:00,
2013-01-20 22:34:00,29.9,14.0,30.25,WNW,293,0.4,1.3,51,0.00,,,0.00,WUHU216HW,2013-01-21 06:34:00,
2013-01-20 22:39:00,29.9,14.4,30.24,South,180,4.0,4.0,52,0.00,,,0.00,WUHU216HW,2013-01-21 06:39:00,
2013-01-20 22:44:00,29.7,14.2,30.24,WNW,293,2.0,4.0,52,0.00,,,0.00,WUHU216HW,2013-01-21 06:44:00,
2013-01-20 22:49:00,29.7,14.2,30.24,NNW,338,0.9,3.6,52,0.00,,,0.00,WUHU216HW,2013-01-21 06:49:00,
2013-01-20 22:54:00,29.5,14.0,30.24,SSW,203,0.9,3.6,52,0.00,,,0.00,WUHU216HW,2013-01-21 06:54:00,
2013-01-20 22:59:00,29.7,14.2,30.24,NNE,23,1.1,3.1,52,0.00,,,0.00,WUHU216HW,2013-01-21 06:59:00,
2013-01-20 23:04:00,29.5,14.5,30.23,WSW,248,4.9,4.9,53,0.00,,,0.00,WUHU216HW,2013-01-21 07:04:00,
2013-01-20 23:09:00,29.5,14.5,30.23,East,90,0.4,4.9,53,0.00,,,0.00,WUHU216HW,2013-01-21 07:09:00,
2013-01-20 23:14:00,29.5,14.5,30.23,NNW,338,1.8,3.8,53,0.00,,,0.00,WUHU216HW,2013-01-21 07:14:00,
2013-01-20 23:19:00,29.3,14.3,30.23,NNW,338,1.1,6.0,53,0.00,,,0.00,WUHU216HW,2013-01-21 07:19:00,
2013-01-20 23:24:00,29.5,14.5,30.23,ENE,68,0.2,6.0,53,0.00,,,0.00,WUHU216HW,2013-01-21 07:24:00,
2013-01-20 23:29:00,29.5,14.5,30.23,NNE,23,1.1,2.2,53,0.00,,,0.00,WUHU216HW,2013-01-21 07:29:00,
2013-01-20 23:34:00,29.7,14.6,30.23,NW,315,0.4,2.7,53,0.00,,,0.00,WUHU216HW,2013-01-21 07:34:00,
2013-01-20 23:39:00,29.7,15.0,30.23,SSW,203,1.3,3.4,54,0.00,,,0.00,WUHU216HW,2013-01-21 07:39:00,
2013-01-20 23:44:00,29.9,14.8,30.23,SSW,203,1.8,3.4,53,0.00,,,0.00,WUHU216HW,2013-01-21 07:44:00,
2013-01-20 23:49:00,29.9,14.8,30.23,SW,225,2.0,2.0,53,0.00,,,0.00,WUHU216HW,2013-01-21 07:49:00,
2013-01-20 23:54:00,29.9,14.8,30.23,SW,225,5.8,6.5,53,0.00,,,0.00,WUHU216HW,2013-01-21 07:54:00,